sensor_id;sensor_type;location;lat;lon;timestamp;pressure;altitude;pressure_sealevel;temperature;humidity
14232;BME280;7200;52.194;9.900;2022-07-23T00:00:14;100768.38;;;16.71;100.00
14232;BME280;7200;52.194;9.900;2022-07-23T00:02:40;100777.22;;;16.71;100.00
14232;BME280;7200;52.194;9.900;2022-07-23T00:05:05;100780.16;;;16.83;100.00
14232;BME280;7200;52.194;9.900;2022-07-23T00:07:30;100772.50;;;16.92;100.00
14232;BME280;7200;52.194;9.900;2022-07-23T00:09:56;100770.91;;;17.04;100.00
14232;BME280;7200;52.194;9.900;2022-07-23T00:12:21;100767.69;;;16.99;100.00
14232;BME280;7200;52.194;9.900;2022-07-23T00:14:46;100760.22;;;16.90;100.00
14232;BME280;7200;52.194;9.900;2022-07-23T00:17:12;100761.22;;;16.87;100.00
14232;BME280;7200;52.194;9.900;2022-07-23T00:19:37;100754.28;;;16.85;100.00
14232;BME280;7200;52.194;9.900;2022-07-23T00:22:03;100749.03;;;16.83;100.00
14232;BME280;7200;52.194;9.900;2022-07-23T00:24:28;100748.09;;;16.84;100.00
14232;BME280;7200;52.194;9.900;2022-07-23T00:26:54;100748.09;;;16.84;100.00
14232;BME280;7200;52.194;9.900;2022-07-23T00:29:19;100733.28;;;16.79;100.00
14232;BME280;7200;52.194;9.900;2022-07-23T00:31:44;100733.66;;;16.57;100.00
14232;BME280;7200;52.194;9.900;2022-07-23T00:34:09;100742.84;;;16.51;100.00
14232;BME280;7200;52.194;9.900;2022-07-23T00:36:35;100744.41;;;16.39;100.00
14232;BME280;7200;52.194;9.900;2022-07-23T00:39:00;100749.81;;;16.38;100.00
14232;BME280;7200;52.194;9.900;2022-07-23T00:41:25;100755.56;;;16.46;100.00
14232;BME280;7200;52.194;9.900;2022-07-23T00:43:51;100751.88;;;16.48;100.00
14232;BME280;7200;52.194;9.900;2022-07-23T00:46:23;100756.75;;;16.40;100.00
14232;BME280;7200;52.194;9.900;2022-07-23T00:48:48;100754.72;;;16.29;100.00
14232;BME280;7200;52.194;9.900;2022-07-23T00:51:17;100764.31;;;16.32;100.00
14232;BME280;7200;52.194;9.900;2022-07-23T00:53:43;100768.78;;;16.31;100.00
14232;BME280;7200;52.194;9.900;2022-07-23T00:56:10;100756.22;;;16.18;100.00
14232;BME280;7200;52.194;9.900;2022-07-23T00:58:36;100762.59;;;16.15;100.00
14232;BME280;7200;52.194;9.900;2022-07-23T01:01:02;100774.63;;;16.22;100.00
14232;BME280;7200;52.194;9.900;2022-07-23T01:03:27;100774.97;;;16.32;100.00
14232;BME280;7200;52.194;9.900;2022-07-23T01:05:53;100773.00;;;16.35;100.00
14232;BME280;7200;52.194;9.900;2022-07-23T01:08:19;100776.69;;;16.33;100.00
14232;BME280;7200;52.194;9.900;2022-07-23T01:10:46;100782.81;;;16.35;100.00
14232;BME280;7200;52.194;9.900;2022-07-23T01:13:13;100772.94;;;16.37;100.00
14232;BME280;7200;52.194;9.900;2022-07-23T01:15:38;100751.16;;;16.13;100.00
14232;BME280;7200;52.194;9.900;2022-07-23T01:18:06;100756.91;;;16.21;100.00
14232;BME280;7200;52.194;9.900;2022-07-23T01:20:32;100753.41;;;16.21;100.00
14232;BME280;7200;52.194;9.900;2022-07-23T01:22:58;100745.91;;;16.11;100.00
14232;BME280;7200;52.194;9.900;2022-07-23T01:25:24;100753.91;;;16.11;100.00
14232;BME280;7200;52.194;9.900;2022-07-23T01:27:51;100764.75;;;16.24;100.00
14232;BME280;7200;52.194;9.900;2022-07-23T01:30:17;100755.56;;;16.30;100.00
14232;BME280;7200;52.194;9.900;2022-07-23T01:32:42;100741.81;;;16.38;100.00
14232;BME280;7200;52.194;9.900;2022-07-23T01:35:08;100732.59;;;16.27;100.00
14232;BME280;7200;52.194;9.900;2022-07-23T01:37:34;100713.22;;;16.09;100.00
14232;BME280;7200;52.194;9.900;2022-07-23T01:39:59;100718.75;;;16.05;100.00
14232;BME280;7200;52.194;9.900;2022-07-23T01:42:25;100727.34;;;15.94;100.00
14232;BME280;7200;52.194;9.900;2022-07-23T01:44:50;100728.06;;;15.80;100.00
14232;BME280;7200;52.194;9.900;2022-07-23T01:47:16;100745.78;;;15.81;100.00
14232;BME280;7200;52.194;9.900;2022-07-23T01:49:41;100739.34;;;15.85;100.00
14232;BME280;7200;52.194;9.900;2022-07-23T01:52:06;100731.44;;;15.84;100.00
14232;BME280;7200;52.194;9.900;2022-07-23T01:54:36;100733.00;;;15.70;100.00
14232;BME280;7200;52.194;9.900;2022-07-23T01:57:02;100731.16;;;15.55;100.00
14232;BME280;7200;52.194;9.900;2022-07-23T01:59:29;100734.84;;;15.52;100.00
14232;BME280;7200;52.194;9.900;2022-07-23T02:01:55;100739.97;;;15.55;100.00
14232;BME280;7200;52.194;9.900;2022-07-23T02:04:21;100741.34;;;15.47;100.00
14232;BME280;7200;52.194;9.900;2022-07-23T02:06:47;100744.28;;;15.41;100.00
14232;BME280;7200;52.194;9.900;2022-07-23T02:09:12;100753.56;;;15.33;100.00
14232;BME280;7200;52.194;9.900;2022-07-23T02:11:38;100746.56;;;15.13;100.00
14232;BME280;7200;52.194;9.900;2022-07-23T02:14:03;100761.28;;;15.21;100.00
14232;BME280;7200;52.194;9.900;2022-07-23T02:16:29;100762.78;;;15.26;100.00
14232;BME280;7200;52.194;9.900;2022-07-23T02:18:54;100764.38;;;15.46;100.00
14232;BME280;7200;52.194;9.900;2022-07-23T02:21:20;100752.19;;;15.42;100.00
14232;BME280;7200;52.194;9.900;2022-07-23T02:23:45;100760.19;;;15.42;100.00
14232;BME280;7200;52.194;9.900;2022-07-23T02:26:10;100773.78;;;15.36;100.00
14232;BME280;7200;52.194;9.900;2022-07-23T02:28:36;100775.19;;;15.43;100.00
14232;BME280;7200;52.194;9.900;2022-07-23T02:31:01;100768.00;;;15.45;100.00
14232;BME280;7200;52.194;9.900;2022-07-23T02:33:26;100771.81;;;15.57;100.00
14232;BME280;7200;52.194;9.900;2022-07-23T02:35:52;100765.94;;;15.68;100.00
14232;BME280;7200;52.194;9.900;2022-07-23T02:38:17;100763.78;;;15.58;100.00
14232;BME280;7200;52.194;9.900;2022-07-23T02:40:42;100770.41;;;15.50;100.00
14232;BME280;7200;52.194;9.900;2022-07-23T02:43:08;100776.13;;;15.42;100.00
14232;BME280;7200;52.194;9.900;2022-07-23T02:45:33;100786.53;;;15.47;100.00
14232;BME280;7200;52.194;9.900;2022-07-23T02:47:58;100782.72;;;15.52;100.00
14232;BME280;7200;52.194;9.900;2022-07-23T02:50:24;100781.53;;;15.58;100.00
14232;BME280;7200;52.194;9.900;2022-07-23T02:52:50;100782.75;;;15.68;100.00
14232;BME280;7200;52.194;9.900;2022-07-23T02:55:15;100769.47;;;15.68;100.00
14232;BME280;7200;52.194;9.900;2022-07-23T02:57:41;100767.75;;;15.67;100.00
14232;BME280;7200;52.194;9.900;2022-07-23T03:00:06;100756.88;;;15.72;100.00
14232;BME280;7200;52.194;9.900;2022-07-23T03:02:32;100753.69;;;15.83;100.00
14232;BME280;7200;52.194;9.900;2022-07-23T03:04:58;100746.69;;;15.80;100.00
14232;BME280;7200;52.194;9.900;2022-07-23T03:07:23;100753.41;;;15.87;100.00
14232;BME280;7200;52.194;9.900;2022-07-23T03:09:49;100753.41;;;15.87;100.00
14232;BME280;7200;52.194;9.900;2022-07-23T03:12:14;100746.69;;;15.80;100.00
14232;BME280;7200;52.194;9.900;2022-07-23T03:14:40;100763.72;;;15.93;100.00
14232;BME280;7200;52.194;9.900;2022-07-23T03:17:05;100744.91;;;15.81;100.00
14232;BME280;7200;52.194;9.900;2022-07-23T03:19:31;100753.97;;;15.94;100.00
14232;BME280;7200;52.194;9.900;2022-07-23T03:21:56;100744.66;;;15.85;100.00
14232;BME280;7200;52.194;9.900;2022-07-23T03:24:22;100737.44;;;15.87;100.00
14232;BME280;7200;52.194;9.900;2022-07-23T03:26:49;100729.81;;;15.81;100.00
14232;BME280;7200;52.194;9.900;2022-07-23T03:29:14;100722.28;;;15.72;100.00
14232;BME280;7200;52.194;9.900;2022-07-23T03:31:40;100727.91;;;15.83;100.00
14232;BME280;7200;52.194;9.900;2022-07-23T03:34:05;100728.78;;;15.84;100.00
14232;BME280;7200;52.194;9.900;2022-07-23T03:36:30;100722.03;;;15.94;100.00
14232;BME280;7200;52.194;9.900;2022-07-23T03:38:56;100713.78;;;15.99;100.00
14232;BME280;7200;52.194;9.900;2022-07-23T03:41:21;100730.38;;;16.04;100.00
14232;BME280;7200;52.194;9.900;2022-07-23T03:43:47;100723.22;;;16.04;100.00
14232;BME280;7200;52.194;9.900;2022-07-23T03:46:12;100720.50;;;16.06;100.00
14232;BME280;7200;52.194;9.900;2022-07-23T03:48:38;100708.09;;;15.89;100.00
14232;BME280;7200;52.194;9.900;2022-07-23T03:51:03;100724.28;;;16.02;100.00
14232;BME280;7200;52.194;9.900;2022-07-23T03:53:29;100723.59;;;16.14;100.00
14232;BME280;7200;52.194;9.900;2022-07-23T03:55:54;100735.19;;;16.13;100.00
14232;BME280;7200;52.194;9.900;2022-07-23T03:58:20;100734.31;;;15.96;100.00
14232;BME280;7200;52.194;9.900;2022-07-23T04:00:45;100745.56;;;16.02;100.00
14232;BME280;7200;52.194;9.900;2022-07-23T04:03:11;100746.41;;;15.86;100.00
14232;BME280;7200;52.194;9.900;2022-07-23T04:05:37;100744.66;;;15.85;100.00
14232;BME280;7200;52.194;9.900;2022-07-23T04:08:02;100740.38;;;15.83;100.00
14232;BME280;7200;52.194;9.900;2022-07-23T04:10:27;100732.31;;;15.84;100.00
14232;BME280;7200;52.194;9.900;2022-07-23T04:12:53;100734.03;;;15.85;100.00
14232;BME280;7200;52.194;9.900;2022-07-23T04:15:18;100732.59;;;15.95;100.00
14232;BME280;7200;52.194;9.900;2022-07-23T04:17:43;100728.13;;;15.96;100.00
14232;BME280;7200;52.194;9.900;2022-07-23T04:20:11;100744.03;;;16.13;100.00
14232;BME280;7200;52.194;9.900;2022-07-23T04:22:36;100743.75;;;16.02;100.00
14232;BME280;7200;52.194;9.900;2022-07-23T04:25:02;100756.28;;;16.00;100.00
14232;BME280;7200;52.194;9.900;2022-07-23T04:27:27;100747.13;;;16.06;100.00
14232;BME280;7200;52.194;9.900;2022-07-23T04:29:52;100745.41;;;16.21;100.00
14232;BME280;7200;52.194;9.900;2022-07-23T04:32:18;100735.13;;;16.30;100.00
14232;BME280;7200;52.194;9.900;2022-07-23T04:34:43;100750.69;;;16.54;100.00
14232;BME280;7200;52.194;9.900;2022-07-23T04:37:09;100750.75;;;16.52;100.00
14232;BME280;7200;52.194;9.900;2022-07-23T04:39:34;100746.88;;;16.42;100.00
14232;BME280;7200;52.194;9.900;2022-07-23T04:41:59;100738.78;;;16.12;100.00
14232;BME280;7200;52.194;9.900;2022-07-23T04:44:25;100743.94;;;16.15;100.00
14232;BME280;7200;52.194;9.900;2022-07-23T04:46:50;100747.72;;;16.11;100.00
14232;BME280;7200;52.194;9.900;2022-07-23T04:49:15;100759.50;;;16.07;100.00
14232;BME280;7200;52.194;9.900;2022-07-23T04:51:41;100753.13;;;16.09;100.00
14232;BME280;7200;52.194;9.900;2022-07-23T04:54:06;100761.47;;;16.19;100.00
14232;BME280;7200;52.194;9.900;2022-07-23T04:56:31;100751.94;;;16.15;100.00
14232;BME280;7200;52.194;9.900;2022-07-23T04:58:56;100758.41;;;15.93;100.00
14232;BME280;7200;52.194;9.900;2022-07-23T05:01:22;100762.50;;;15.83;100.00
14232;BME280;7200;52.194;9.900;2022-07-23T05:03:47;100765.25;;;15.82;100.00
14232;BME280;7200;52.194;9.900;2022-07-23T05:06:13;100766.28;;;15.79;100.00
14232;BME280;7200;52.194;9.900;2022-07-23T05:08:39;100763.84;;;15.74;100.00
14232;BME280;7200;52.194;9.900;2022-07-23T05:11:04;100770.81;;;15.77;100.00
14232;BME280;7200;52.194;9.900;2022-07-23T05:13:30;100768.69;;;15.66;100.00
14232;BME280;7200;52.194;9.900;2022-07-23T05:15:55;100768.25;;;15.58;100.00
14232;BME280;7200;52.194;9.900;2022-07-23T05:18:21;100767.53;;;15.54;100.00
14232;BME280;7200;52.194;9.900;2022-07-23T05:20:46;100787.84;;;15.55;100.00
14232;BME280;7200;52.194;9.900;2022-07-23T05:23:12;100785.91;;;15.59;100.00
14232;BME280;7200;52.194;9.900;2022-07-23T05:25:37;100784.34;;;15.55;100.00
14232;BME280;7200;52.194;9.900;2022-07-23T05:28:03;100778.69;;;15.61;100.00
14232;BME280;7200;52.194;9.900;2022-07-23T05:30:28;100790.94;;;15.83;100.00
14232;BME280;7200;52.194;9.900;2022-07-23T05:32:53;100781.50;;;15.93;100.00
14232;BME280;7200;52.194;9.900;2022-07-23T05:35:19;100785.63;;;15.99;100.00
14232;BME280;7200;52.194;9.900;2022-07-23T05:37:44;100807.41;;;16.23;100.00
14232;BME280;7200;52.194;9.900;2022-07-23T05:40:10;100799.63;;;16.35;100.00
14232;BME280;7200;52.194;9.900;2022-07-23T05:42:37;100802.13;;;16.54;100.00
14232;BME280;7200;52.194;9.900;2022-07-23T05:45:04;100786.75;;;16.44;100.00
14232;BME280;7200;52.194;9.900;2022-07-23T05:47:46;100771.63;;;16.44;100.00
14232;BME280;7200;52.194;9.900;2022-07-23T05:50:12;100766.91;;;16.49;100.00
14232;BME280;7200;52.194;9.900;2022-07-23T05:52:38;100756.06;;;16.37;100.00
14232;BME280;7200;52.194;9.900;2022-07-23T05:55:04;100762.09;;;16.40;100.00
14232;BME280;7200;52.194;9.900;2022-07-23T05:57:29;100753.50;;;16.35;100.00
14232;BME280;7200;52.194;9.900;2022-07-23T05:59:55;100755.22;;;16.36;100.00
14232;BME280;7200;52.194;9.900;2022-07-23T06:02:20;100742.31;;;16.12;100.00
14232;BME280;7200;52.194;9.900;2022-07-23T06:04:45;100753.97;;;16.10;100.00
14232;BME280;7200;52.194;9.900;2022-07-23T06:07:11;100770.00;;;16.26;100.00
14232;BME280;7200;52.194;9.900;2022-07-23T06:09:36;100778.56;;;16.31;100.00
14232;BME280;7200;52.194;9.900;2022-07-23T06:12:02;100775.41;;;16.24;100.00
14232;BME280;7200;52.194;9.900;2022-07-23T06:14:27;100775.75;;;16.34;100.00
14232;BME280;7200;52.194;9.900;2022-07-23T06:16:53;100772.22;;;16.33;100.00
14232;BME280;7200;52.194;9.900;2022-07-23T06:19:18;100785.13;;;16.41;100.00
14232;BME280;7200;52.194;9.900;2022-07-23T06:24:15;100777.19;;;16.55;100.00
14232;BME280;7200;52.194;9.900;2022-07-23T06:26:40;100757.97;;;16.66;100.00
14232;BME280;7200;52.194;9.900;2022-07-23T06:29:05;100758.22;;;16.78;100.00
14232;BME280;7200;52.194;9.900;2022-07-23T06:31:31;100732.88;;;16.86;100.00
14232;BME280;7200;52.194;9.900;2022-07-23T06:33:56;100724.22;;;16.83;100.00
14232;BME280;7200;52.194;9.900;2022-07-23T06:36:21;100719.88;;;16.96;100.00
14232;BME280;7200;52.194;9.900;2022-07-23T06:38:47;100711.97;;;16.95;100.00
14232;BME280;7200;52.194;9.900;2022-07-23T06:41:12;100714.53;;;16.96;100.00
14232;BME280;7200;52.194;9.900;2022-07-23T06:43:37;100728.94;;;17.08;100.00
14232;BME280;7200;52.194;9.900;2022-07-23T06:46:03;100721.41;;;17.00;100.00
14232;BME280;7200;52.194;9.900;2022-07-23T06:48:28;100739.50;;;17.25;100.00
14232;BME280;7200;52.194;9.900;2022-07-23T06:50:54;100728.16;;;17.22;100.00
14232;BME280;7200;52.194;9.900;2022-07-23T06:53:20;100719.88;;;17.26;100.00
14232;BME280;7200;52.194;9.900;2022-07-23T06:55:46;100729.44;;;17.45;100.00
14232;BME280;7200;52.194;9.900;2022-07-23T06:58:12;100717.50;;;17.36;100.00
14232;BME280;7200;52.194;9.900;2022-07-23T07:00:39;100729.59;;;17.42;100.00
14232;BME280;7200;52.194;9.900;2022-07-23T07:03:04;100724.84;;;17.47;100.00
14232;BME280;7200;52.194;9.900;2022-07-23T07:05:30;100729.34;;;17.61;100.00
14232;BME280;7200;52.194;9.900;2022-07-23T07:07:55;100717.81;;;17.60;100.00
14232;BME280;7200;52.194;9.900;2022-07-23T07:10:21;100738.88;;;17.79;100.00
14232;BME280;7200;52.194;9.900;2022-07-23T07:12:46;100709.16;;;17.71;100.00
14232;BME280;7200;52.194;9.900;2022-07-23T07:15:12;100721.19;;;17.78;100.00
14232;BME280;7200;52.194;9.900;2022-07-23T07:17:37;100722.63;;;17.84;100.00
14232;BME280;7200;52.194;9.900;2022-07-23T07:20:03;100724.91;;;17.90;100.00
14232;BME280;7200;52.194;9.900;2022-07-23T07:22:29;100706.16;;;17.92;100.00
14232;BME280;7200;52.194;9.900;2022-07-23T07:24:54;100732.72;;;18.22;100.00
14232;BME280;7200;52.194;9.900;2022-07-23T07:27:19;100738.09;;;18.49;100.00
14232;BME280;7200;52.194;9.900;2022-07-23T07:29:44;100716.06;;;18.45;100.00
14232;BME280;7200;52.194;9.900;2022-07-23T07:32:10;100725.88;;;18.59;100.00
14232;BME280;7200;52.194;9.900;2022-07-23T07:34:35;100720.75;;;18.69;100.00
14232;BME280;7200;52.194;9.900;2022-07-23T07:37:00;100686.47;;;18.48;100.00
14232;BME280;7200;52.194;9.900;2022-07-23T07:39:26;100701.69;;;18.61;100.00
14232;BME280;7200;52.194;9.900;2022-07-23T07:41:51;100695.06;;;18.66;100.00
14232;BME280;7200;52.194;9.900;2022-07-23T07:44:16;100696.19;;;18.77;100.00
14232;BME280;7200;52.194;9.900;2022-07-23T07:46:42;100692.03;;;18.73;100.00
14232;BME280;7200;52.194;9.900;2022-07-23T07:49:07;100696.00;;;18.80;100.00
14232;BME280;7200;52.194;9.900;2022-07-23T07:51:33;100691.69;;;18.92;100.00
14232;BME280;7200;52.194;9.900;2022-07-23T07:53:59;100687.19;;;18.92;98.54
14232;BME280;7200;52.194;9.900;2022-07-23T07:56:24;100688.47;;;18.99;97.77
14232;BME280;7200;52.194;9.900;2022-07-23T07:58:49;100698.22;;;19.13;97.18
14232;BME280;7200;52.194;9.900;2022-07-23T08:01:15;100680.38;;;19.01;96.48
14232;BME280;7200;52.194;9.900;2022-07-23T08:03:40;100695.91;;;19.21;97.17
14232;BME280;7200;52.194;9.900;2022-07-23T08:06:06;100699.44;;;19.48;95.57
14232;BME280;7200;52.194;9.900;2022-07-23T08:08:31;100701.72;;;19.54;95.19
14232;BME280;7200;52.194;9.900;2022-07-23T08:10:56;100681.25;;;19.40;94.04
14232;BME280;7200;52.194;9.900;2022-07-23T08:13:22;100682.41;;;19.36;94.36
14232;BME280;7200;52.194;9.900;2022-07-23T08:15:47;100703.63;;;19.52;94.73
14232;BME280;7200;52.194;9.900;2022-07-23T08:18:12;100700.19;;;19.62;95.18
14232;BME280;7200;52.194;9.900;2022-07-23T08:20:38;100669.28;;;19.33;93.55
14232;BME280;7200;52.194;9.900;2022-07-23T08:23:06;100678.88;;;19.22;95.71
14232;BME280;7200;52.194;9.900;2022-07-23T08:25:34;100695.91;;;19.34;96.00
14232;BME280;7200;52.194;9.900;2022-07-23T08:28:02;100703.41;;;19.55;94.75
14232;BME280;7200;52.194;9.900;2022-07-23T08:30:30;100722.59;;;19.87;94.99
14232;BME280;7200;52.194;9.900;2022-07-23T08:33:03;100719.13;;;20.11;94.52
14232;BME280;7200;52.194;9.900;2022-07-23T08:37:56;100674.81;;;19.68;89.47
14232;BME280;7200;52.194;9.900;2022-07-23T08:40:22;100676.84;;;19.64;90.48
14232;BME280;7200;52.194;9.900;2022-07-23T08:42:49;100694.53;;;19.67;91.72
14232;BME280;7200;52.194;9.900;2022-07-23T08:45:20;100674.53;;;19.86;87.88
14232;BME280;7200;52.194;9.900;2022-07-23T08:47:49;100687.66;;;19.89;88.64
14232;BME280;7200;52.194;9.900;2022-07-23T08:50:15;100698.66;;;20.10;88.52
14232;BME280;7200;52.194;9.900;2022-07-23T08:52:41;100683.66;;;20.20;87.09
14232;BME280;7200;52.194;9.900;2022-07-23T08:55:08;100720.72;;;20.63;88.27
14232;BME280;7200;52.194;9.900;2022-07-23T08:57:33;100666.91;;;20.29;86.46
14232;BME280;7200;52.194;9.900;2022-07-23T08:59:59;100653.31;;;19.82;86.81
14232;BME280;7200;52.194;9.900;2022-07-23T09:02:24;100669.91;;;19.75;88.30
14232;BME280;7200;52.194;9.900;2022-07-23T09:04:49;100656.41;;;19.89;87.51
14232;BME280;7200;52.194;9.900;2022-07-23T09:07:15;100671.38;;;20.05;86.35
14232;BME280;7200;52.194;9.900;2022-07-23T09:09:40;100644.03;;;20.12;83.67
14232;BME280;7200;52.194;9.900;2022-07-23T09:12:08;100652.16;;;20.11;84.81
14232;BME280;7200;52.194;9.900;2022-07-23T09:17:16;100647.50;;;20.26;84.49
14232;BME280;7200;52.194;9.900;2022-07-23T09:19:43;100658.75;;;19.94;86.67
14232;BME280;7200;52.194;9.900;2022-07-23T09:22:22;100653.31;;;20.19;85.21
14232;BME280;7200;52.194;9.900;2022-07-23T09:25:06;100666.28;;;20.50;84.94
14232;BME280;7200;52.194;9.900;2022-07-23T09:30:15;100650.44;;;20.10;86.13
14232;BME280;7200;52.194;9.900;2022-07-23T09:32:40;100652.00;;;19.88;85.54
14232;BME280;7200;52.194;9.900;2022-07-23T09:35:06;100681.91;;;20.19;86.91
14232;BME280;7200;52.194;9.900;2022-07-23T09:37:31;100651.66;;;20.30;84.66
14232;BME280;7200;52.194;9.900;2022-07-23T09:40:08;100681.06;;;20.79;83.53
14232;BME280;7200;52.194;9.900;2022-07-23T09:42:35;100644.56;;;21.01;79.24
14232;BME280;7200;52.194;9.900;2022-07-23T09:45:01;100627.75;;;20.64;78.88
14232;BME280;7200;52.194;9.900;2022-07-23T09:47:31;100638.56;;;20.62;79.36
14232;BME280;7200;52.194;9.900;2022-07-23T09:50:01;100634.63;;;20.79;78.69
14232;BME280;7200;52.194;9.900;2022-07-23T09:52:33;100629.03;;;20.82;78.75
14232;BME280;7200;52.194;9.900;2022-07-23T09:55:00;100601.63;;;20.90;75.72
14232;BME280;7200;52.194;9.900;2022-07-23T09:57:26;100638.25;;;21.02;77.54
14232;BME280;7200;52.194;9.900;2022-07-23T09:59:52;100633.44;;;20.94;78.76
14232;BME280;7200;52.194;9.900;2022-07-23T10:02:18;100634.66;;;20.90;80.00
14232;BME280;7200;52.194;9.900;2022-07-23T10:04:43;100638.56;;;20.62;82.81
14232;BME280;7200;52.194;9.900;2022-07-23T10:07:09;100640.94;;;20.54;83.59
14232;BME280;7200;52.194;9.900;2022-07-23T10:09:38;100634.56;;;20.43;83.51
14232;BME280;7200;52.194;9.900;2022-07-23T10:12:09;100616.09;;;20.52;82.46
14232;BME280;7200;52.194;9.900;2022-07-23T10:15:05;100659.63;;;20.79;82.89
14232;BME280;7200;52.194;9.900;2022-07-23T10:17:32;100643.03;;;21.32;78.87
14232;BME280;7200;52.194;9.900;2022-07-23T10:19:58;100611.03;;;21.07;78.23
14232;BME280;7200;52.194;9.900;2022-07-23T10:22:26;100616.13;;;20.87;79.39
14232;BME280;7200;52.194;9.900;2022-07-23T10:30:06;100651.22;;;21.31;79.14
14232;BME280;7200;52.194;9.900;2022-07-23T10:32:43;100624.84;;;21.36;76.65
14232;BME280;7200;52.194;9.900;2022-07-23T10:37:45;100594.63;;;21.56;72.58
14232;BME280;7200;52.194;9.900;2022-07-23T10:40:17;100638.44;;;21.91;74.28
14232;BME280;7200;52.194;9.900;2022-07-23T10:42:46;100612.94;;;21.85;73.25
14232;BME280;7200;52.194;9.900;2022-07-23T10:45:31;100631.94;;;21.93;73.68
14232;BME280;7200;52.194;9.900;2022-07-23T10:48:21;100611.84;;;21.65;74.05
14232;BME280;7200;52.194;9.900;2022-07-23T10:51:14;100613.75;;;21.41;75.08
14232;BME280;7200;52.194;9.900;2022-07-23T10:59:23;100585.47;;;21.36;74.12
14232;BME280;7200;52.194;9.900;2022-07-23T11:01:49;100588.88;;;21.38;75.11
14232;BME280;7200;52.194;9.900;2022-07-23T11:04:14;100603.06;;;21.63;74.99
14232;BME280;7200;52.194;9.900;2022-07-23T11:11:50;100594.38;;;21.82;72.88
14232;BME280;7200;52.194;9.900;2022-07-23T11:14:15;100599.94;;;21.90;72.38
14232;BME280;7200;52.194;9.900;2022-07-23T11:16:46;100569.94;;;21.85;72.27
14232;BME280;7200;52.194;9.900;2022-07-23T11:19:13;100595.88;;;22.07;72.39
14232;BME280;7200;52.194;9.900;2022-07-23T11:24:06;100603.66;;;22.33;72.21
14232;BME280;7200;52.194;9.900;2022-07-23T11:29:37;100565.25;;;22.10;71.23
14232;BME280;7200;52.194;9.900;2022-07-23T11:32:04;100581.84;;;22.04;73.06
14232;BME280;7200;52.194;9.900;2022-07-23T11:34:42;100590.97;;;22.24;71.32
14232;BME280;7200;52.194;9.900;2022-07-23T11:37:11;100567.63;;;22.24;70.69
14232;BME280;7200;52.194;9.900;2022-07-23T11:39:38;100574.75;;;22.25;71.35
14232;BME280;7200;52.194;9.900;2022-07-23T11:42:06;100568.66;;;22.12;71.40
14232;BME280;7200;52.194;9.900;2022-07-23T11:44:36;100561.25;;;21.93;71.77
14232;BME280;7200;52.194;9.900;2022-07-23T11:47:07;100571.25;;;22.02;72.52
14232;BME280;7200;52.194;9.900;2022-07-23T11:49:33;100576.69;;;22.23;71.74
14232;BME280;7200;52.194;9.900;2022-07-23T11:52:06;100575.38;;;22.50;70.93
14232;BME280;7200;52.194;9.900;2022-07-23T11:54:34;100568.78;;;22.43;70.67
14232;BME280;7200;52.194;9.900;2022-07-23T11:57:01;100582.06;;;22.55;70.22
14232;BME280;7200;52.194;9.900;2022-07-23T11:59:29;100582.47;;;22.51;70.41
14232;BME280;7200;52.194;9.900;2022-07-23T12:02:03;100585.22;;;22.82;69.76
14232;BME280;7200;52.194;9.900;2022-07-23T12:04:49;100569.47;;;22.56;69.24
14232;BME280;7200;52.194;9.900;2022-07-23T12:07:33;100598.88;;;22.69;69.92
14232;BME280;7200;52.194;9.900;2022-07-23T12:10:17;100566.78;;;22.56;69.78
14232;BME280;7200;52.194;9.900;2022-07-23T12:12:54;100572.38;;;22.64;69.56
14232;BME280;7200;52.194;9.900;2022-07-23T12:15:23;100566.34;;;22.51;70.49
14232;BME280;7200;52.194;9.900;2022-07-23T12:17:50;100547.03;;;22.46;69.30
14232;BME280;7200;52.194;9.900;2022-07-23T12:20:21;100551.56;;;22.45;69.03
14232;BME280;7200;52.194;9.900;2022-07-23T12:22:50;100575.66;;;22.68;69.31
14232;BME280;7200;52.194;9.900;2022-07-23T12:25:19;100576.97;;;22.94;68.17
14232;BME280;7200;52.194;9.900;2022-07-23T12:27:45;100532.28;;;22.61;66.91
14232;BME280;7200;52.194;9.900;2022-07-23T12:32:54;100560.75;;;22.64;67.38
14232;BME280;7200;52.194;9.900;2022-07-23T12:35:21;100540.16;;;22.74;66.95
14232;BME280;7200;52.194;9.900;2022-07-23T12:37:48;100560.50;;;22.67;67.88
14232;BME280;7200;52.194;9.900;2022-07-23T12:40:32;100588.94;;;22.90;68.50
14232;BME280;7200;52.194;9.900;2022-07-23T12:43:03;100546.13;;;22.78;67.00
14232;BME280;7200;52.194;9.900;2022-07-23T12:48:26;100562.72;;;22.83;66.79
14232;BME280;7200;52.194;9.900;2022-07-23T12:51:04;100566.94;;;22.76;68.09
14232;BME280;7200;52.194;9.900;2022-07-23T12:53:31;100605.06;;;23.23;67.72
14232;BME280;7200;52.194;9.900;2022-07-23T12:56:07;100559.34;;;23.32;64.85
14232;BME280;7200;52.194;9.900;2022-07-23T12:58:47;100571.06;;;23.31;65.79
14232;BME280;7200;52.194;9.900;2022-07-23T13:06:45;100596.81;;;23.24;66.92
14232;BME280;7200;52.194;9.900;2022-07-23T13:09:13;100589.47;;;23.57;65.68
14232;BME280;7200;52.194;9.900;2022-07-23T13:11:40;100542.53;;;23.09;64.86
14232;BME280;7200;52.194;9.900;2022-07-23T13:14:06;100568.72;;;23.38;65.93
14232;BME280;7200;52.194;9.900;2022-07-23T13:16:32;100591.44;;;23.55;65.05
14232;BME280;7200;52.194;9.900;2022-07-23T13:18:59;100558.72;;;23.69;63.48
14232;BME280;7200;52.194;9.900;2022-07-23T13:21:26;100564.06;;;23.90;63.54
14232;BME280;7200;52.194;9.900;2022-07-23T13:23:53;100528.00;;;23.72;61.92
14232;BME280;7200;52.194;9.900;2022-07-23T13:26:18;100576.00;;;23.57;63.57
14232;BME280;7200;52.194;9.900;2022-07-23T13:28:44;100544.06;;;23.93;62.27
14232;BME280;7200;52.194;9.900;2022-07-23T13:31:13;100567.22;;;24.25;61.98
14232;BME280;7200;52.194;9.900;2022-07-23T13:33:38;100530.84;;;23.80;61.37
14232;BME280;7200;52.194;9.900;2022-07-23T13:36:04;100546.47;;;23.86;62.43
14232;BME280;7200;52.194;9.900;2022-07-23T13:38:30;100537.41;;;24.07;61.47